Airfield :
LOGIN :

Register | Disclaimer

   EN    FR    IT 

 










Legend :    VFR   Marginal VFR   IFR   Intensive IFR   Very Intensive IFR
Visi :
Ceiling :
>= 8 km
>= 3000ft
5 to 8 km
1000 to 3000 ft
1500m to 5 km
500 to 1000 ft
800 to 1500m
200 to 500 ft
< 800m
< 200 ft
Symbols :   Thunderstorms  Fog  Heavy snow  Heavy precipitations  Wind > 20 kt
SIGMETs :     Misc.  Thunderstorms  Icing  Turbulence  Mountain Waves  Volcanic Ashes






- Airport Elevation : 510 ft


LJCE - Cerklje

CURRENT METAR :
  • 191430Z 21009KT CAVOK 06/M02 Q1020 RMK BLU

EXPIRED METARs :
  • 191400Z 23010KT CAVOK 06/M02 Q1020 RMK BLU
  • 191330Z 23010KT CAVOK 06/M02 Q1020 RMK BLU
  • 191300Z 22010KT CAVOK 05/M02 Q1020 RMK BLU
  • 191230Z 22008KT CAVOK 05/M02 Q1021 RMK BLU
  • 191200Z 23007KT CAVOK 04/M03 Q1021 RMK BLU

TAF TAF LJCE
Valid from the 19 at 15:00 until the 20 at 00:00 UTC


191400Z 1915/1924 25008KT CAVOK



MET'MAP, your aeronautical weather chart ! - Copyright ORBIFLY December 2007 - Disclaimer

ORBIFLY MET'MAP TEAM :

Programming & Development : Alexandra Zaïnal
Concept & original design : Baudouin d'Aumeries
Assistance for programming : Marc-Olivier Méhu
Technical & hardware support : Manuel Goepfert

Contact : metmap@orbifly.com




SOURCES & CREDITS :

   NOAA